sensor_id;sensor_type;location;lat;lon;timestamp;temperature;humidity
4215;DHT22;2121;48.062;7.850;2023-02-28T00:01:03;-0.60;86.40
4215;DHT22;2121;48.062;7.850;2023-02-28T00:03:29;-0.70;86.30
4215;DHT22;2121;48.062;7.850;2023-02-28T00:05:54;-0.80;86.80
4215;DHT22;2121;48.062;7.850;2023-02-28T00:08:20;-0.80;87.00
4215;DHT22;2121;48.062;7.850;2023-02-28T00:10:46;-0.90;87.30
4215;DHT22;2121;48.062;7.850;2023-02-28T00:13:11;-0.90;87.50
4215;DHT22;2121;48.062;7.850;2023-02-28T00:15:38;-0.90;87.40
4215;DHT22;2121;48.062;7.850;2023-02-28T00:18:04;-0.90;87.70
4215;DHT22;2121;48.062;7.850;2023-02-28T00:20:30;-1.00;87.70
4215;DHT22;2121;48.062;7.850;2023-02-28T00:22:56;-1.00;88.20
4215;DHT22;2121;48.062;7.850;2023-02-28T00:25:23;-1.10;88.40
4215;DHT22;2121;48.062;7.850;2023-02-28T00:27:50;-1.10;88.40
4215;DHT22;2121;48.062;7.850;2023-02-28T00:30:19;-1.10;88.30
4215;DHT22;2121;48.062;7.850;2023-02-28T00:32:46;-1.00;88.00
4215;DHT22;2121;48.062;7.850;2023-02-28T00:35:12;-1.00;88.00
4215;DHT22;2121;48.062;7.850;2023-02-28T00:37:38;-1.00;88.00
4215;DHT22;2121;48.062;7.850;2023-02-28T00:40:05;-1.00;88.60
4215;DHT22;2121;48.062;7.850;2023-02-28T00:42:32;-0.90;88.60
4215;DHT22;2121;48.062;7.850;2023-02-28T00:44:59;-0.90;88.80
4215;DHT22;2121;48.062;7.850;2023-02-28T00:47:25;-0.90;89.10
4215;DHT22;2121;48.062;7.850;2023-02-28T00:49:51;-0.90;89.20
4215;DHT22;2121;48.062;7.850;2023-02-28T00:52:16;-1.00;89.30
4215;DHT22;2121;48.062;7.850;2023-02-28T00:54:42;-0.90;89.20
4215;DHT22;2121;48.062;7.850;2023-02-28T00:57:08;-0.80;89.00
4215;DHT22;2121;48.062;7.850;2023-02-28T00:59:33;-0.80;88.90
4215;DHT22;2121;48.062;7.850;2023-02-28T01:01:59;-0.80;88.90
4215;DHT22;2121;48.062;7.850;2023-02-28T01:04:25;-0.80;88.90
4215;DHT22;2121;48.062;7.850;2023-02-28T01:06:51;-0.90;88.80
4215;DHT22;2121;48.062;7.850;2023-02-28T01:09:17;-0.80;88.30
4215;DHT22;2121;48.062;7.850;2023-02-28T01:11:44;-0.80;89.00
4215;DHT22;2121;48.062;7.850;2023-02-28T01:14:15;-0.90;88.90
4215;DHT22;2121;48.062;7.850;2023-02-28T01:16:42;-0.80;88.60
4215;DHT22;2121;48.062;7.850;2023-02-28T01:19:09;-0.70;88.70
4215;DHT22;2121;48.062;7.850;2023-02-28T01:21:35;-0.70;88.40
4215;DHT22;2121;48.062;7.850;2023-02-28T01:24:02;-0.60;88.40
4215;DHT22;2121;48.062;7.850;2023-02-28T01:26:29;-0.60;88.20
4215;DHT22;2121;48.062;7.850;2023-02-28T01:28:55;-0.60;88.50
4215;DHT22;2121;48.062;7.850;2023-02-28T01:31:21;-0.60;88.60
4215;DHT22;2121;48.062;7.850;2023-02-28T01:33:48;-0.50;88.20
4215;DHT22;2121;48.062;7.850;2023-02-28T01:36:17;-0.50;88.50
4215;DHT22;2121;48.062;7.850;2023-02-28T01:38:44;-0.60;88.80
4215;DHT22;2121;48.062;7.850;2023-02-28T01:41:26;-0.60;89.00
4215;DHT22;2121;48.062;7.850;2023-02-28T01:46:24;-0.50;89.00
4215;DHT22;2121;48.062;7.850;2023-02-28T01:48:54;-0.50;88.80
4215;DHT22;2121;48.062;7.850;2023-02-28T01:51:38;-0.50;88.50
4215;DHT22;2121;48.062;7.850;2023-02-28T01:54:14;-0.50;89.10
4215;DHT22;2121;48.062;7.850;2023-02-28T01:56:46;-0.50;89.10
4215;DHT22;2121;48.062;7.850;2023-02-28T01:59:22;-0.50;89.40
4215;DHT22;2121;48.062;7.850;2023-02-28T02:01:53;-0.40;89.40
4215;DHT22;2121;48.062;7.850;2023-02-28T02:04:21;-0.40;89.20
4215;DHT22;2121;48.062;7.850;2023-02-28T02:06:49;-0.30;89.30
4215;DHT22;2121;48.062;7.850;2023-02-28T02:09:15;-0.30;89.50
4215;DHT22;2121;48.062;7.850;2023-02-28T02:11:42;-0.30;89.50
4215;DHT22;2121;48.062;7.850;2023-02-28T02:17:41;-0.30;89.40
4215;DHT22;2121;48.062;7.850;2023-02-28T02:20:31;-0.30;89.40
4215;DHT22;2121;48.062;7.850;2023-02-28T02:23:27;-0.20;89.80
4215;DHT22;2121;48.062;7.850;2023-02-28T02:35:34;-0.20;89.50
4215;DHT22;2121;48.062;7.850;2023-02-28T02:38:52;-0.10;90.00
4215;DHT22;2121;48.062;7.850;2023-02-28T02:41:27;-0.10;89.40
4215;DHT22;2121;48.062;7.850;2023-02-28T02:44:10;0.00;89.40
4215;DHT22;2121;48.062;7.850;2023-02-28T02:46:44;0.00;89.20
4215;DHT22;2121;48.062;7.850;2023-02-28T02:49:21;-0.10;89.50
4215;DHT22;2121;48.062;7.850;2023-02-28T02:51:51;0.00;89.50
4215;DHT22;2121;48.062;7.850;2023-02-28T02:54:21;0.00;89.60
4215;DHT22;2121;48.062;7.850;2023-02-28T02:56:49;0.00;89.70
4215;DHT22;2121;48.062;7.850;2023-02-28T02:59:20;0.00;89.50
4215;DHT22;2121;48.062;7.850;2023-02-28T03:01:52;0.00;89.10
4215;DHT22;2121;48.062;7.850;2023-02-28T03:04:23;0.00;89.20
4215;DHT22;2121;48.062;7.850;2023-02-28T03:06:51;0.00;89.50
4215;DHT22;2121;48.062;7.850;2023-02-28T03:09:24;0.00;89.60
4215;DHT22;2121;48.062;7.850;2023-02-28T03:11:54;0.00;89.70
4215;DHT22;2121;48.062;7.850;2023-02-28T03:17:42;0.00;89.50
4215;DHT22;2121;48.062;7.850;2023-02-28T03:20:40;0.00;89.50
4215;DHT22;2121;48.062;7.850;2023-02-28T03:23:19;0.00;89.50
4215;DHT22;2121;48.062;7.850;2023-02-28T03:26:04;0.00;89.80
4215;DHT22;2121;48.062;7.850;2023-02-28T03:31:44;0.00;90.00
4215;DHT22;2121;48.062;7.850;2023-02-28T03:34:58;0.00;89.90
4215;DHT22;2121;48.062;7.850;2023-02-28T03:37:31;0.00;90.00
4215;DHT22;2121;48.062;7.850;2023-02-28T03:40:08;0.00;90.10
4215;DHT22;2121;48.062;7.850;2023-02-28T03:42:42;0.10;90.10
4215;DHT22;2121;48.062;7.850;2023-02-28T03:45:19;0.00;90.10
4215;DHT22;2121;48.062;7.850;2023-02-28T03:48:07;0.10;90.20
4215;DHT22;2121;48.062;7.850;2023-02-28T03:50:42;0.00;89.90
4215;DHT22;2121;48.062;7.850;2023-02-28T03:53:32;0.00;90.20
4215;DHT22;2121;48.062;7.850;2023-02-28T03:56:07;0.10;90.30
4215;DHT22;2121;48.062;7.850;2023-02-28T03:59:00;0.10;90.30
4215;DHT22;2121;48.062;7.850;2023-02-28T04:01:35;0.00;90.40
4215;DHT22;2121;48.062;7.850;2023-02-28T04:04:02;0.00;90.40
4215;DHT22;2121;48.062;7.850;2023-02-28T04:06:32;0.00;90.40
4215;DHT22;2121;48.062;7.850;2023-02-28T04:08:58;0.10;90.50
4215;DHT22;2121;48.062;7.850;2023-02-28T04:11:35;0.10;90.50
4215;DHT22;2121;48.062;7.850;2023-02-28T04:14:04;0.10;90.50
4215;DHT22;2121;48.062;7.850;2023-02-28T04:16:31;0.00;90.50
4215;DHT22;2121;48.062;7.850;2023-02-28T04:18:57;0.00;90.50
4215;DHT22;2121;48.062;7.850;2023-02-28T04:21:39;0.00;90.60
4215;DHT22;2121;48.062;7.850;2023-02-28T04:24:17;-0.10;90.80
4215;DHT22;2121;48.062;7.850;2023-02-28T04:26:49;-0.10;90.80
4215;DHT22;2121;48.062;7.850;2023-02-28T04:29:25;-0.10;90.70
4215;DHT22;2121;48.062;7.850;2023-02-28T04:31:53;-0.10;90.90
4215;DHT22;2121;48.062;7.850;2023-02-28T04:34:20;-0.10;90.90
4215;DHT22;2121;48.062;7.850;2023-02-28T04:36:47;-0.10;91.00
4215;DHT22;2121;48.062;7.850;2023-02-28T04:39:18;-0.10;91.00
4215;DHT22;2121;48.062;7.850;2023-02-28T04:41:45;-0.10;91.30
4215;DHT22;2121;48.062;7.850;2023-02-28T04:44:11;-0.10;91.40
4215;DHT22;2121;48.062;7.850;2023-02-28T04:46:37;-0.10;91.40
4215;DHT22;2121;48.062;7.850;2023-02-28T04:49:03;-0.10;91.30
4215;DHT22;2121;48.062;7.850;2023-02-28T04:51:29;-0.20;91.50
4215;DHT22;2121;48.062;7.850;2023-02-28T04:53:55;-0.20;91.50
4215;DHT22;2121;48.062;7.850;2023-02-28T04:56:21;-0.20;91.50
4215;DHT22;2121;48.062;7.850;2023-02-28T04:58:47;-0.20;91.70
4215;DHT22;2121;48.062;7.850;2023-02-28T05:01:28;-0.20;91.80
4215;DHT22;2121;48.062;7.850;2023-02-28T05:03:57;-0.30;91.70
4215;DHT22;2121;48.062;7.850;2023-02-28T05:06:26;-0.30;91.90
4215;DHT22;2121;48.062;7.850;2023-02-28T05:08:55;-0.30;91.90
4215;DHT22;2121;48.062;7.850;2023-02-28T05:11:33;-0.30;92.00
4215;DHT22;2121;48.062;7.850;2023-02-28T05:14:09;-0.40;92.10
4215;DHT22;2121;48.062;7.850;2023-02-28T05:16:36;-0.40;92.20
4215;DHT22;2121;48.062;7.850;2023-02-28T05:19:03;-0.40;92.40
4215;DHT22;2121;48.062;7.850;2023-02-28T05:21:31;-0.40;92.40
4215;DHT22;2121;48.062;7.850;2023-02-28T05:24:05;-0.40;92.40
4215;DHT22;2121;48.062;7.850;2023-02-28T05:26:37;-0.40;92.50
4215;DHT22;2121;48.062;7.850;2023-02-28T05:29:05;-0.40;92.70
4215;DHT22;2121;48.062;7.850;2023-02-28T05:31:30;-0.50;92.60
4215;DHT22;2121;48.062;7.850;2023-02-28T05:33:56;-0.40;92.70
4215;DHT22;2121;48.062;7.850;2023-02-28T05:36:22;-0.40;92.70
4215;DHT22;2121;48.062;7.850;2023-02-28T05:38:49;-0.40;92.80
4215;DHT22;2121;48.062;7.850;2023-02-28T05:41:15;-0.40;92.80
4215;DHT22;2121;48.062;7.850;2023-02-28T05:43:42;-0.40;93.00
4215;DHT22;2121;48.062;7.850;2023-02-28T05:46:10;-0.40;92.90
4215;DHT22;2121;48.062;7.850;2023-02-28T05:48:38;-0.30;92.90
4215;DHT22;2121;48.062;7.850;2023-02-28T05:51:06;-0.30;92.90
4215;DHT22;2121;48.062;7.850;2023-02-28T05:53:32;-0.30;93.20
4215;DHT22;2121;48.062;7.850;2023-02-28T05:55:59;-0.30;93.60
4215;DHT22;2121;48.062;7.850;2023-02-28T05:58:25;-0.20;93.70
4215;DHT22;2121;48.062;7.850;2023-02-28T06:00:54;-0.20;93.90
4215;DHT22;2121;48.062;7.850;2023-02-28T06:03:20;-0.20;94.20
4215;DHT22;2121;48.062;7.850;2023-02-28T06:05:46;-0.20;94.70
4215;DHT22;2121;48.062;7.850;2023-02-28T06:08:11;-0.30;95.20
4215;DHT22;2121;48.062;7.850;2023-02-28T06:10:37;-0.40;95.60
4215;DHT22;2121;48.062;7.850;2023-02-28T06:13:03;-0.50;96.10
4215;DHT22;2121;48.062;7.850;2023-02-28T06:15:30;-0.50;96.60
4215;DHT22;2121;48.062;7.850;2023-02-28T06:17:56;-0.60;97.10
4215;DHT22;2121;48.062;7.850;2023-02-28T06:20:23;-0.60;97.40
4215;DHT22;2121;48.062;7.850;2023-02-28T06:22:49;-0.60;97.60
4215;DHT22;2121;48.062;7.850;2023-02-28T06:25:20;-0.60;98.00
4215;DHT22;2121;48.062;7.850;2023-02-28T06:27:45;-0.70;98.30
4215;DHT22;2121;48.062;7.850;2023-02-28T06:30:11;-0.80;98.80
4215;DHT22;2121;48.062;7.850;2023-02-28T06:32:37;-0.80;99.30
4215;DHT22;2121;48.062;7.850;2023-02-28T06:35:03;-0.80;99.50
4215;DHT22;2121;48.062;7.850;2023-02-28T06:37:31;-0.80;99.40
4215;DHT22;2121;48.062;7.850;2023-02-28T06:39:57;-0.80;99.60
4215;DHT22;2121;48.062;7.850;2023-02-28T06:42:24;-0.80;99.60
4215;DHT22;2121;48.062;7.850;2023-02-28T06:44:57;-0.80;99.60
4215;DHT22;2121;48.062;7.850;2023-02-28T06:47:23;-0.80;99.70
4215;DHT22;2121;48.062;7.850;2023-02-28T06:49:49;-0.80;99.70
4215;DHT22;2121;48.062;7.850;2023-02-28T06:52:15;-0.70;99.60
4215;DHT22;2121;48.062;7.850;2023-02-28T06:54:41;-0.70;99.70
4215;DHT22;2121;48.062;7.850;2023-02-28T06:57:07;-0.70;99.40
4215;DHT22;2121;48.062;7.850;2023-02-28T06:59:33;-0.60;99.40
4215;DHT22;2121;48.062;7.850;2023-02-28T07:02:00;-0.50;99.00
4215;DHT22;2121;48.062;7.850;2023-02-28T07:04:27;-0.40;99.00
4215;DHT22;2121;48.062;7.850;2023-02-28T07:06:54;-0.40;98.70
4215;DHT22;2121;48.062;7.850;2023-02-28T07:09:22;-0.40;98.60
4215;DHT22;2121;48.062;7.850;2023-02-28T07:11:48;-0.40;98.80
4215;DHT22;2121;48.062;7.850;2023-02-28T07:14:14;-0.30;98.80
4215;DHT22;2121;48.062;7.850;2023-02-28T07:16:39;-0.20;98.20
4215;DHT22;2121;48.062;7.850;2023-02-28T07:19:05;-0.30;97.70
4215;DHT22;2121;48.062;7.850;2023-02-28T07:21:31;-0.30;97.80
4215;DHT22;2121;48.062;7.850;2023-02-28T07:23:57;-0.20;98.20
4215;DHT22;2121;48.062;7.850;2023-02-28T07:26:23;-0.20;97.50
4215;DHT22;2121;48.062;7.850;2023-02-28T07:28:49;-0.10;97.20
4215;DHT22;2121;48.062;7.850;2023-02-28T07:31:16;-0.10;97.20
4215;DHT22;2121;48.062;7.850;2023-02-28T07:33:42;-0.20;97.00
4215;DHT22;2121;48.062;7.850;2023-02-28T07:36:16;-0.10;97.10
4215;DHT22;2121;48.062;7.850;2023-02-28T07:38:46;0.00;97.40
4215;DHT22;2121;48.062;7.850;2023-02-28T07:41:17;0.10;96.90
4215;DHT22;2121;48.062;7.850;2023-02-28T07:43:44;0.20;96.50
4215;DHT22;2121;48.062;7.850;2023-02-28T07:46:13;0.20;96.40
4215;DHT22;2121;48.062;7.850;2023-02-28T07:48:40;0.30;96.30
4215;DHT22;2121;48.062;7.850;2023-02-28T07:51:06;0.20;96.20
4215;DHT22;2121;48.062;7.850;2023-02-28T07:53:32;0.30;96.10
4215;DHT22;2121;48.062;7.850;2023-02-28T07:55:58;0.40;96.00
4215;DHT22;2121;48.062;7.850;2023-02-28T07:58:26;0.50;96.00
4215;DHT22;2121;48.062;7.850;2023-02-28T08:00:53;0.70;95.30
4215;DHT22;2121;48.062;7.850;2023-02-28T08:03:20;0.70;95.00
4215;DHT22;2121;48.062;7.850;2023-02-28T08:05:47;0.80;95.10
4215;DHT22;2121;48.062;7.850;2023-02-28T08:08:14;0.80;95.20
4215;DHT22;2121;48.062;7.850;2023-02-28T08:10:40;0.80;94.80
4215;DHT22;2121;48.062;7.850;2023-02-28T08:13:06;0.90;94.90
4215;DHT22;2121;48.062;7.850;2023-02-28T08:15:32;0.80;95.10
4215;DHT22;2121;48.062;7.850;2023-02-28T08:17:58;0.80;95.30
4215;DHT22;2121;48.062;7.850;2023-02-28T08:20:25;0.70;95.10
4215;DHT22;2121;48.062;7.850;2023-02-28T08:22:51;0.80;95.20
4215;DHT22;2121;48.062;7.850;2023-02-28T08:25:18;0.90;95.20
4215;DHT22;2121;48.062;7.850;2023-02-28T08:27:44;1.20;95.20
4215;DHT22;2121;48.062;7.850;2023-02-28T08:30:11;1.50;95.10
4215;DHT22;2121;48.062;7.850;2023-02-28T08:32:39;1.80;94.60
4215;DHT22;2121;48.062;7.850;2023-02-28T08:35:05;2.00;94.30
4215;DHT22;2121;48.062;7.850;2023-02-28T08:37:32;1.70;94.10
4215;DHT22;2121;48.062;7.850;2023-02-28T08:39:57;1.50;94.60
4215;DHT22;2121;48.062;7.850;2023-02-28T08:42:24;1.40;94.80
4215;DHT22;2121;48.062;7.850;2023-02-28T08:44:49;1.50;94.90
4215;DHT22;2121;48.062;7.850;2023-02-28T08:47:15;1.70;94.90
4215;DHT22;2121;48.062;7.850;2023-02-28T08:49:41;1.90;94.50
4215;DHT22;2121;48.062;7.850;2023-02-28T08:52:07;2.00;94.30
4215;DHT22;2121;48.062;7.850;2023-02-28T08:54:33;2.00;94.30
4215;DHT22;2121;48.062;7.850;2023-02-28T08:56:59;2.10;94.20
4215;DHT22;2121;48.062;7.850;2023-02-28T08:59:25;2.20;94.00
4215;DHT22;2121;48.062;7.850;2023-02-28T09:01:51;2.30;93.80
4215;DHT22;2121;48.062;7.850;2023-02-28T09:04:17;2.30;94.10
4215;DHT22;2121;48.062;7.850;2023-02-28T09:06:42;2.50;94.00
4215;DHT22;2121;48.062;7.850;2023-02-28T09:09:10;2.70;93.20
4215;DHT22;2121;48.062;7.850;2023-02-28T09:11:36;2.60;93.00
4215;DHT22;2121;48.062;7.850;2023-02-28T09:14:03;2.50;93.00
4215;DHT22;2121;48.062;7.850;2023-02-28T09:16:30;2.50;92.90
4215;DHT22;2121;48.062;7.850;2023-02-28T09:18:57;2.40;92.80
4215;DHT22;2121;48.062;7.850;2023-02-28T09:21:23;2.80;92.80
4215;DHT22;2121;48.062;7.850;2023-02-28T09:23:50;3.10;92.60
4215;DHT22;2121;48.062;7.850;2023-02-28T09:26:27;3.30;92.30
4215;DHT22;2121;48.062;7.850;2023-02-28T09:28:54;3.60;91.80
4215;DHT22;2121;48.062;7.850;2023-02-28T09:31:25;3.60;91.40
4215;DHT22;2121;48.062;7.850;2023-02-28T09:33:55;3.50;90.90
4215;DHT22;2121;48.062;7.850;2023-02-28T09:36:22;3.70;90.90
4215;DHT22;2121;48.062;7.850;2023-02-28T09:38:49;3.90;90.60
4215;DHT22;2121;48.062;7.850;2023-02-28T09:41:25;4.20;90.50
4215;DHT22;2121;48.062;7.850;2023-02-28T09:44:00;4.70;90.20
4215;DHT22;2121;48.062;7.850;2023-02-28T09:46:38;5.20;89.20
4215;DHT22;2121;48.062;7.850;2023-02-28T09:49:11;5.80;88.50
4215;DHT22;2121;48.062;7.850;2023-02-28T09:51:55;5.90;86.20
4215;DHT22;2121;48.062;7.850;2023-02-28T09:54:26;6.00;86.50
4215;DHT22;2121;48.062;7.850;2023-02-28T09:57:01;6.30;85.20
4215;DHT22;2121;48.062;7.850;2023-02-28T10:05:12;5.90;84.50
4215;DHT22;2121;48.062;7.850;2023-02-28T10:16:10;6.70;83.50
4215;DHT22;2121;48.062;7.850;2023-02-28T10:19:01;6.90;83.50
4215;DHT22;2121;48.062;7.850;2023-02-28T10:21:37;6.50;83.20
4215;DHT22;2121;48.062;7.850;2023-02-28T10:24:26;6.50;82.40
4215;DHT22;2121;48.062;7.850;2023-02-28T10:27:01;6.40;82.80
4215;DHT22;2121;48.062;7.850;2023-02-28T10:29:35;6.50;83.50
4215;DHT22;2121;48.062;7.850;2023-02-28T10:32:02;6.50;82.40
4215;DHT22;2121;48.062;7.850;2023-02-28T10:34:29;6.80;83.30
4215;DHT22;2121;48.062;7.850;2023-02-28T10:36:55;6.80;83.00
4215;DHT22;2121;48.062;7.850;2023-02-28T10:39:54;6.80;81.90
4215;DHT22;2121;48.062;7.850;2023-02-28T10:42:28;6.60;81.30
4215;DHT22;2121;48.062;7.850;2023-02-28T10:45:16;6.50;82.60
4215;DHT22;2121;48.062;7.850;2023-02-28T10:47:57;6.70;82.40
4215;DHT22;2121;48.062;7.850;2023-02-28T10:56:05;6.80;81.70
4215;DHT22;2121;48.062;7.850;2023-02-28T10:58:54;6.70;82.00
4215;DHT22;2121;48.062;7.850;2023-02-28T11:06:59;6.20;83.30
4215;DHT22;2121;48.062;7.850;2023-02-28T11:12:07;6.50;82.80
4215;DHT22;2121;48.062;7.850;2023-02-28T11:14:51;6.40;82.80
4215;DHT22;2121;48.062;7.850;2023-02-28T11:17:24;6.40;82.70
4215;DHT22;2121;48.062;7.850;2023-02-28T11:19:57;6.20;84.00
4215;DHT22;2121;48.062;7.850;2023-02-28T11:22:31;5.80;82.70
4215;DHT22;2121;48.062;7.850;2023-02-28T11:25:07;5.50;84.10
4215;DHT22;2121;48.062;7.850;2023-02-28T11:27:49;5.20;83.50
4215;DHT22;2121;48.062;7.850;2023-02-28T11:30:37;5.20;85.40
4215;DHT22;2121;48.062;7.850;2023-02-28T11:36:11;5.80;84.20
4215;DHT22;2121;48.062;7.850;2023-02-28T11:38:39;6.00;83.00
4215;DHT22;2121;48.062;7.850;2023-02-28T11:41:28;5.70;83.40
4215;DHT22;2121;48.062;7.850;2023-02-28T11:44:23;5.40;83.50
4215;DHT22;2121;48.062;7.850;2023-02-28T11:52:55;6.40;82.50
4215;DHT22;2121;48.062;7.850;2023-02-28T11:55:48;6.70;82.90
4215;DHT22;2121;48.062;7.850;2023-02-28T11:58:38;6.70;82.60
4215;DHT22;2121;48.062;7.850;2023-02-28T12:01:22;6.80;82.90
4215;DHT22;2121;48.062;7.850;2023-02-28T12:04:23;6.90;83.10
4215;DHT22;2121;48.062;7.850;2023-02-28T12:07:16;7.20;82.80
4215;DHT22;2121;48.062;7.850;2023-02-28T12:10:03;7.10;82.70
4215;DHT22;2121;48.062;7.850;2023-02-28T12:13:01;6.60;82.30
4215;DHT22;2121;48.062;7.850;2023-02-28T12:27:21;5.90;84.50
4215;DHT22;2121;48.062;7.850;2023-02-28T12:32:46;5.50;85.20
4215;DHT22;2121;48.062;7.850;2023-02-28T12:35:18;5.50;85.60
4215;DHT22;2121;48.062;7.850;2023-02-28T12:37:56;5.90;85.50
4215;DHT22;2121;48.062;7.850;2023-02-28T12:40:48;6.20;83.90
4215;DHT22;2121;48.062;7.850;2023-02-28T12:43:22;6.50;83.60
4215;DHT22;2121;48.062;7.850;2023-02-28T12:45:59;6.90;84.40
4215;DHT22;2121;48.062;7.850;2023-02-28T12:48:44;6.90;81.90
4215;DHT22;2121;48.062;7.850;2023-02-28T12:51:15;6.80;82.20
4215;DHT22;2121;48.062;7.850;2023-02-28T12:54:03;6.40;83.90
4215;DHT22;2121;48.062;7.850;2023-02-28T12:59:27;7.40;82.90
4215;DHT22;2121;48.062;7.850;2023-02-28T13:02:15;7.70;81.00
4215;DHT22;2121;48.062;7.850;2023-02-28T13:10:25;6.60;84.00
4215;DHT22;2121;48.062;7.850;2023-02-28T13:13:03;6.80;84.10
4215;DHT22;2121;48.062;7.850;2023-02-28T13:15:29;7.20;83.10
4215;DHT22;2121;48.062;7.850;2023-02-28T13:17:58;6.80;83.10
4215;DHT22;2121;48.062;7.850;2023-02-28T13:20:47;7.10;84.00
4215;DHT22;2121;48.062;7.850;2023-02-28T13:23:37;7.50;83.70
4215;DHT22;2121;48.062;7.850;2023-02-28T13:40:06;8.40;82.10
4215;DHT22;2121;48.062;7.850;2023-02-28T13:42:53;9.30;79.50
4215;DHT22;2121;48.062;7.850;2023-02-28T13:45:28;8.20;78.80
4215;DHT22;2121;48.062;7.850;2023-02-28T13:48:05;7.70;81.20
4215;DHT22;2121;48.062;7.850;2023-02-28T13:50:42;7.50;80.30
4215;DHT22;2121;48.062;7.850;2023-02-28T13:53:23;7.20;82.40
4215;DHT22;2121;48.062;7.850;2023-02-28T13:56:23;7.60;82.70
4215;DHT22;2121;48.062;7.850;2023-02-28T14:02:28;7.60;82.00
4215;DHT22;2121;48.062;7.850;2023-02-28T14:05:17;7.40;81.30
4215;DHT22;2121;48.062;7.850;2023-02-28T14:07:53;7.40;83.10
4215;DHT22;2121;48.062;7.850;2023-02-28T14:10:51;7.40;82.20
4215;DHT22;2121;48.062;7.850;2023-02-28T14:13:45;7.00;82.30
4215;DHT22;2121;48.062;7.850;2023-02-28T14:16:19;6.70;82.20
4215;DHT22;2121;48.062;7.850;2023-02-28T14:19:00;6.50;82.60
4215;DHT22;2121;48.062;7.850;2023-02-28T14:21:28;6.50;84.00
4215;DHT22;2121;48.062;7.850;2023-02-28T14:27:41;5.70;84.20
4215;DHT22;2121;48.062;7.850;2023-02-28T14:30:53;5.50;84.80
4215;DHT22;2121;48.062;7.850;2023-02-28T14:34:24;5.60;87.20
4215;DHT22;2121;48.062;7.850;2023-02-28T14:36:42;6.10;85.20
4215;DHT22;2121;48.062;7.850;2023-02-28T14:39:17;6.50;84.20
4215;DHT22;2121;48.062;7.850;2023-02-28T14:41:46;6.60;84.00
4215;DHT22;2121;48.062;7.850;2023-02-28T14:44:21;6.40;83.70
4215;DHT22;2121;48.062;7.850;2023-02-28T14:47:01;5.70;85.30
4215;DHT22;2121;48.062;7.850;2023-02-28T14:49:42;5.60;86.00
4215;DHT22;2121;48.062;7.850;2023-02-28T14:52:25;5.50;84.50
4215;DHT22;2121;48.062;7.850;2023-02-28T14:55:03;5.40;86.80
4215;DHT22;2121;48.062;7.850;2023-02-28T14:57:42;5.20;86.00
4215;DHT22;2121;48.062;7.850;2023-02-28T15:00:28;5.40;86.40
4215;DHT22;2121;48.062;7.850;2023-02-28T15:02:57;5.60;86.70
4215;DHT22;2121;48.062;7.850;2023-02-28T15:05:31;5.30;85.70
4215;DHT22;2121;48.062;7.850;2023-02-28T15:08:10;5.10;86.30
4215;DHT22;2121;48.062;7.850;2023-02-28T15:10:40;5.30;87.20
4215;DHT22;2121;48.062;7.850;2023-02-28T15:13:13;5.40;86.60
4215;DHT22;2121;48.062;7.850;2023-02-28T15:24:10;5.50;86.80
4215;DHT22;2121;48.062;7.850;2023-02-28T15:26:53;5.50;86.90
4215;DHT22;2121;48.062;7.850;2023-02-28T15:29:23;5.80;86.90
4215;DHT22;2121;48.062;7.850;2023-02-28T15:32:04;6.00;87.00
4215;DHT22;2121;48.062;7.850;2023-02-28T15:34:43;6.30;85.80
4215;DHT22;2121;48.062;7.850;2023-02-28T15:39:57;6.20;84.70
4215;DHT22;2121;48.062;7.850;2023-02-28T15:42:29;6.40;84.20
4215;DHT22;2121;48.062;7.850;2023-02-28T15:44:56;6.30;85.00
4215;DHT22;2121;48.062;7.850;2023-02-28T15:47:25;7.60;84.10
4215;DHT22;2121;48.062;7.850;2023-02-28T15:49:59;9.60;82.00
4215;DHT22;2121;48.062;7.850;2023-02-28T15:52:33;11.80;77.30
4215;DHT22;2121;48.062;7.850;2023-02-28T15:55:20;13.00;74.40
4215;DHT22;2121;48.062;7.850;2023-02-28T15:57:53;13.90;72.90
4215;DHT22;2121;48.062;7.850;2023-02-28T16:00:23;13.20;71.50
4215;DHT22;2121;48.062;7.850;2023-02-28T16:02:51;11.80;71.90
4215;DHT22;2121;48.062;7.850;2023-02-28T16:05:27;10.20;73.50
4215;DHT22;2121;48.062;7.850;2023-02-28T16:10:55;9.80;77.00
4215;DHT22;2121;48.062;7.850;2023-02-28T16:13:20;10.90;74.60
4215;DHT22;2121;48.062;7.850;2023-02-28T16:15:46;12.00;73.70
4215;DHT22;2121;48.062;7.850;2023-02-28T16:18:14;12.60;71.80
4215;DHT22;2121;48.062;7.850;2023-02-28T16:20:40;12.10;71.40
4215;DHT22;2121;48.062;7.850;2023-02-28T16:23:05;11.80;71.90
4215;DHT22;2121;48.062;7.850;2023-02-28T16:25:37;11.50;72.70
4215;DHT22;2121;48.062;7.850;2023-02-28T16:28:11;10.50;73.50
4215;DHT22;2121;48.062;7.850;2023-02-28T16:30:41;10.60;73.30
4215;DHT22;2121;48.062;7.850;2023-02-28T16:33:07;11.00;74.20
4215;DHT22;2121;48.062;7.850;2023-02-28T16:35:33;11.20;73.20
4215;DHT22;2121;48.062;7.850;2023-02-28T16:37:59;11.20;72.80
4215;DHT22;2121;48.062;7.850;2023-02-28T16:40:25;11.00;72.90
4215;DHT22;2121;48.062;7.850;2023-02-28T16:42:57;10.80;73.30
4215;DHT22;2121;48.062;7.850;2023-02-28T16:45:26;10.30;73.20
4215;DHT22;2121;48.062;7.850;2023-02-28T16:47:54;9.10;75.70
4215;DHT22;2121;48.062;7.850;2023-02-28T16:50:21;8.00;77.50
4215;DHT22;2121;48.062;7.850;2023-02-28T16:52:48;7.00;79.40
4215;DHT22;2121;48.062;7.850;2023-02-28T16:55:15;6.30;80.90
4215;DHT22;2121;48.062;7.850;2023-02-28T16:57:41;5.70;82.10
4215;DHT22;2121;48.062;7.850;2023-02-28T17:00:10;5.20;83.40
4215;DHT22;2121;48.062;7.850;2023-02-28T17:02:38;4.60;84.10
4215;DHT22;2121;48.062;7.850;2023-02-28T17:05:04;4.20;85.10
4215;DHT22;2121;48.062;7.850;2023-02-28T17:07:30;3.70;86.20
4215;DHT22;2121;48.062;7.850;2023-02-28T17:09:56;3.40;87.30
4215;DHT22;2121;48.062;7.850;2023-02-28T17:12:21;3.30;88.40
4215;DHT22;2121;48.062;7.850;2023-02-28T17:14:47;3.20;89.60
4215;DHT22;2121;48.062;7.850;2023-02-28T17:17:18;3.10;89.60
4215;DHT22;2121;48.062;7.850;2023-02-28T17:19:46;2.80;90.30
4215;DHT22;2121;48.062;7.850;2023-02-28T17:22:12;2.70;90.40
4215;DHT22;2121;48.062;7.850;2023-02-28T17:24:38;2.60;90.40
4215;DHT22;2121;48.062;7.850;2023-02-28T17:27:04;2.50;90.40
4215;DHT22;2121;48.062;7.850;2023-02-28T17:29:30;2.40;90.60
4215;DHT22;2121;48.062;7.850;2023-02-28T17:31:56;2.30;90.90
4215;DHT22;2121;48.062;7.850;2023-02-28T17:34:22;1.90;91.40
4215;DHT22;2121;48.062;7.850;2023-02-28T17:36:49;1.70;91.70
4215;DHT22;2121;48.062;7.850;2023-02-28T17:39:16;1.50;92.00
4215;DHT22;2121;48.062;7.850;2023-02-28T17:41:54;1.50;92.00
4215;DHT22;2121;48.062;7.850;2023-02-28T17:44:21;1.50;92.30
4215;DHT22;2121;48.062;7.850;2023-02-28T17:46:48;1.30;92.70
4215;DHT22;2121;48.062;7.850;2023-02-28T17:49:15;1.10;93.00
4215;DHT22;2121;48.062;7.850;2023-02-28T17:51:41;1.10;93.40
4215;DHT22;2121;48.062;7.850;2023-02-28T17:54:07;0.90;93.70
4215;DHT22;2121;48.062;7.850;2023-02-28T17:56:33;0.80;94.00
4215;DHT22;2121;48.062;7.850;2023-02-28T17:58:59;0.80;94.40
4215;DHT22;2121;48.062;7.850;2023-02-28T18:01:25;0.70;94.50
4215;DHT22;2121;48.062;7.850;2023-02-28T18:03:52;0.60;94.80
4215;DHT22;2121;48.062;7.850;2023-02-28T18:06:39;0.50;94.90
4215;DHT22;2121;48.062;7.850;2023-02-28T18:09:17;0.40;95.40
4215;DHT22;2121;48.062;7.850;2023-02-28T18:11:44;0.40;95.60
4215;DHT22;2121;48.062;7.850;2023-02-28T18:14:16;0.20;95.80
4215;DHT22;2121;48.062;7.850;2023-02-28T18:16:44;0.10;96.00
4215;DHT22;2121;48.062;7.850;2023-02-28T18:19:11;0.00;96.10
4215;DHT22;2121;48.062;7.850;2023-02-28T18:21:42;-0.10;96.30
4215;DHT22;2121;48.062;7.850;2023-02-28T18:24:10;-0.20;96.70
4215;DHT22;2121;48.062;7.850;2023-02-28T18:26:37;-0.20;97.10
4215;DHT22;2121;48.062;7.850;2023-02-28T18:29:03;-0.30;97.40
4215;DHT22;2121;48.062;7.850;2023-02-28T18:31:30;-0.40;97.90
4215;DHT22;2121;48.062;7.850;2023-02-28T18:33:57;-0.40;98.10
4215;DHT22;2121;48.062;7.850;2023-02-28T18:36:24;-0.60;98.40
4215;DHT22;2121;48.062;7.850;2023-02-28T18:38:50;-0.70;98.80